sensor_id;sensor_type;location;lat;lon;timestamp;pressure;altitude;pressure_sealevel;temperature
79228;BMP280;75303;53.496;10.214;2024-02-26T00:01:56;99633.91;;;3.54
79228;BMP280;75303;53.496;10.214;2024-02-26T00:04:21;99644.16;;;3.45
79228;BMP280;75303;53.496;10.214;2024-02-26T00:06:47;99643.13;;;3.41
79228;BMP280;75303;53.496;10.214;2024-02-26T00:09:13;99635.63;;;3.35
79228;BMP280;75303;53.496;10.214;2024-02-26T00:11:39;99645.75;;;3.36
79228;BMP280;75303;53.496;10.214;2024-02-26T00:14:04;99646.84;;;3.30
79228;BMP280;75303;53.496;10.214;2024-02-26T00:16:30;99641.41;;;3.27
79228;BMP280;75303;53.496;10.214;2024-02-26T00:18:55;99645.34;;;3.19
79228;BMP280;75303;53.496;10.214;2024-02-26T00:21:21;99640.13;;;3.19
79228;BMP280;75303;53.496;10.214;2024-02-26T00:23:46;99639.59;;;3.22
79228;BMP280;75303;53.496;10.214;2024-02-26T00:26:12;99636.00;;;3.13
79228;BMP280;75303;53.496;10.214;2024-02-26T00:28:37;99631.84;;;3.12
79228;BMP280;75303;53.496;10.214;2024-02-26T00:31:03;99630.31;;;3.06
79228;BMP280;75303;53.496;10.214;2024-02-26T00:33:29;99633.47;;;3.03
79228;BMP280;75303;53.496;10.214;2024-02-26T00:35:54;99629.03;;;3.04
79228;BMP280;75303;53.496;10.214;2024-02-26T00:38:19;99636.09;;;2.99
79228;BMP280;75303;53.496;10.214;2024-02-26T00:40:45;99632.72;;;2.98
79228;BMP280;75303;53.496;10.214;2024-02-26T00:43:11;99636.13;;;2.94
79228;BMP280;75303;53.496;10.214;2024-02-26T00:45:36;99637.19;;;2.93
79228;BMP280;75303;53.496;10.214;2024-02-26T00:48:01;99638.22;;;2.92
79228;BMP280;75303;53.496;10.214;2024-02-26T00:50:30;99648.13;;;2.90
79228;BMP280;75303;53.496;10.214;2024-02-26T00:52:56;99634.63;;;2.83
79228;BMP280;75303;53.496;10.214;2024-02-26T00:55:21;99641.91;;;2.81
79228;BMP280;75303;53.496;10.214;2024-02-26T00:57:47;99645.09;;;2.73
79228;BMP280;75303;53.496;10.214;2024-02-26T01:00:13;99641.97;;;2.71
79228;BMP280;75303;53.496;10.214;2024-02-26T01:02:38;99639.38;;;2.71
79228;BMP280;75303;53.496;10.214;2024-02-26T01:05:05;99641.22;;;2.65
79228;BMP280;75303;53.496;10.214;2024-02-26T01:07:31;99642.84;;;2.51
79228;BMP280;75303;53.496;10.214;2024-02-26T01:10:01;99642.03;;;2.51
79228;BMP280;75303;53.496;10.214;2024-02-26T01:12:27;99638.16;;;2.53
79228;BMP280;75303;53.496;10.214;2024-02-26T01:14:52;99644.63;;;2.51
79228;BMP280;75303;53.496;10.214;2024-02-26T01:17:17;99635.03;;;2.51
79228;BMP280;75303;53.496;10.214;2024-02-26T01:19:43;99644.91;;;2.49
79228;BMP280;75303;53.496;10.214;2024-02-26T01:22:09;99653.28;;;2.46
79228;BMP280;75303;53.496;10.214;2024-02-26T01:24:35;99647.28;;;2.41
79228;BMP280;75303;53.496;10.214;2024-02-26T01:27:00;99646.78;;;2.39
79228;BMP280;75303;53.496;10.214;2024-02-26T01:29:25;99646.53;;;2.35
79228;BMP280;75303;53.496;10.214;2024-02-26T01:31:50;99653.03;;;2.33
79228;BMP280;75303;53.496;10.214;2024-02-26T01:34:16;99648.34;;;2.30
79228;BMP280;75303;53.496;10.214;2024-02-26T01:36:43;99647.88;;;2.28
79228;BMP280;75303;53.496;10.214;2024-02-26T01:39:08;99639.53;;;2.26
79228;BMP280;75303;53.496;10.214;2024-02-26T01:41:38;99646.03;;;2.19
79228;BMP280;75303;53.496;10.214;2024-02-26T01:44:03;99639.56;;;2.11
79228;BMP280;75303;53.496;10.214;2024-02-26T01:46:29;99647.88;;;2.18
79228;BMP280;75303;53.496;10.214;2024-02-26T01:48:55;99644.22;;;2.14
79228;BMP280;75303;53.496;10.214;2024-02-26T01:51:21;99650.75;;;2.17
79228;BMP280;75303;53.496;10.214;2024-02-26T01:53:48;99645.28;;;2.13
79228;BMP280;75303;53.496;10.214;2024-02-26T01:56:15;99640.88;;;2.04
79228;BMP280;75303;53.496;10.214;2024-02-26T01:58:42;99653.88;;;2.04
79228;BMP280;75303;53.496;10.214;2024-02-26T02:04:30;99647.13;;;1.98
79228;BMP280;75303;53.496;10.214;2024-02-26T02:06:57;99650.50;;;1.93
79228;BMP280;75303;53.496;10.214;2024-02-26T02:09:23;99647.94;;;1.88
79228;BMP280;75303;53.496;10.214;2024-02-26T02:11:49;99658.31;;;1.83
79228;BMP280;75303;53.496;10.214;2024-02-26T02:14:15;99649.22;;;1.81
79228;BMP280;75303;53.496;10.214;2024-02-26T02:16:40;99646.88;;;1.84
79228;BMP280;75303;53.496;10.214;2024-02-26T02:19:05;99645.84;;;1.80
79228;BMP280;75303;53.496;10.214;2024-02-26T02:21:31;99657.28;;;1.79
79228;BMP280;75303;53.496;10.214;2024-02-26T02:23:56;99652.09;;;1.64
79228;BMP280;75303;53.496;10.214;2024-02-26T02:26:22;99658.31;;;1.68
79228;BMP280;75303;53.496;10.214;2024-02-26T02:28:48;99656.00;;;1.67
79228;BMP280;75303;53.496;10.214;2024-02-26T02:31:14;99652.09;;;1.64
79228;BMP280;75303;53.496;10.214;2024-02-26T02:33:40;99648.47;;;1.65
79228;BMP280;75303;53.496;10.214;2024-02-26T02:36:05;99654.69;;;1.64
79228;BMP280;75303;53.496;10.214;2024-02-26T02:38:35;99659.63;;;1.66
79228;BMP280;75303;53.496;10.214;2024-02-26T02:41:00;99657.03;;;1.66
79228;BMP280;75303;53.496;10.214;2024-02-26T02:43:25;99659.38;;;1.62
79228;BMP280;75303;53.496;10.214;2024-02-26T02:45:51;99654.44;;;1.56
79228;BMP280;75303;53.496;10.214;2024-02-26T02:48:16;99661.72;;;1.54
79228;BMP280;75303;53.496;10.214;2024-02-26T02:50:42;99659.13;;;1.49
79228;BMP280;75303;53.496;10.214;2024-02-26T02:53:07;99669.75;;;1.43
79228;BMP280;75303;53.496;10.214;2024-02-26T02:55:33;99669.75;;;1.48
79228;BMP280;75303;53.496;10.214;2024-02-26T02:57:58;99661.44;;;1.51
79228;BMP280;75303;53.496;10.214;2024-02-26T03:00:24;99668.19;;;1.47
79228;BMP280;75303;53.496;10.214;2024-02-26T03:02:49;99680.41;;;1.41
79228;BMP280;75303;53.496;10.214;2024-02-26T03:05:15;99668.69;;;1.39
79228;BMP280;75303;53.496;10.214;2024-02-26T03:07:40;99662.50;;;1.45
79228;BMP280;75303;53.496;10.214;2024-02-26T03:10:06;99663.00;;;1.42
79228;BMP280;75303;53.496;10.214;2024-02-26T03:12:33;99667.66;;;1.40
79228;BMP280;75303;53.496;10.214;2024-02-26T03:14:59;99674.44;;;1.36
79228;BMP280;75303;53.496;10.214;2024-02-26T03:17:28;99674.16;;;1.37
79228;BMP280;75303;53.496;10.214;2024-02-26T03:19:53;99673.38;;;1.32
79228;BMP280;75303;53.496;10.214;2024-02-26T03:22:19;99671.56;;;1.27
79228;BMP280;75303;53.496;10.214;2024-02-26T03:24:45;99666.88;;;1.24
79228;BMP280;75303;53.496;10.214;2024-02-26T03:27:11;99673.91;;;1.29
79228;BMP280;75303;53.496;10.214;2024-02-26T03:29:39;99674.41;;;1.26
79228;BMP280;75303;53.496;10.214;2024-02-26T03:32:05;99675.44;;;1.25
79228;BMP280;75303;53.496;10.214;2024-02-26T03:34:31;99675.44;;;1.25
79228;BMP280;75303;53.496;10.214;2024-02-26T03:36:59;99682.72;;;1.28
79228;BMP280;75303;53.496;10.214;2024-02-26T03:39:24;99684.53;;;1.22
79228;BMP280;75303;53.496;10.214;2024-02-26T03:41:50;99683.50;;;1.23
79228;BMP280;75303;53.496;10.214;2024-02-26T03:44:15;99681.66;;;1.24
79228;BMP280;75303;53.496;10.214;2024-02-26T03:46:40;99692.06;;;1.24
79228;BMP280;75303;53.496;10.214;2024-02-26T03:49:08;99690.00;;;1.26
79228;BMP280;75303;53.496;10.214;2024-02-26T03:51:33;99699.13;;;1.33
79228;BMP280;75303;53.496;10.214;2024-02-26T03:54:00;99708.19;;;1.26
79228;BMP280;75303;53.496;10.214;2024-02-26T03:56:26;99709.72;;;1.12
79228;BMP280;75303;53.496;10.214;2024-02-26T03:58:51;99713.88;;;1.18
79228;BMP280;75303;53.496;10.214;2024-02-26T04:01:17;99708.94;;;1.16
79228;BMP280;75303;53.496;10.214;2024-02-26T04:03:42;99713.88;;;1.18
79228;BMP280;75303;53.496;10.214;2024-02-26T04:06:09;99718.31;;;1.17
79228;BMP280;75303;53.496;10.214;2024-02-26T04:08:46;99720.09;;;1.17
79228;BMP280;75303;53.496;10.214;2024-02-26T04:11:12;99730.25;;;1.18
79228;BMP280;75303;53.496;10.214;2024-02-26T04:13:37;99730.97;;;1.09
79228;BMP280;75303;53.496;10.214;2024-02-26T04:16:06;99740.59;;;1.13
79228;BMP280;75303;53.496;10.214;2024-02-26T04:18:32;99742.94;;;1.10
79228;BMP280;75303;53.496;10.214;2024-02-26T04:20:57;99749.94;;;1.04
79228;BMP280;75303;53.496;10.214;2024-02-26T04:23:23;99748.88;;;1.05
79228;BMP280;75303;53.496;10.214;2024-02-26T04:25:49;99761.63;;;1.07
79228;BMP280;75303;53.496;10.214;2024-02-26T04:28:14;99765.81;;;1.13
79228;BMP280;75303;53.496;10.214;2024-02-26T04:30:40;99764.75;;;1.09
79228;BMP280;75303;53.496;10.214;2024-02-26T04:33:06;99773.59;;;1.13
79228;BMP280;75303;53.496;10.214;2024-02-26T04:35:31;99781.88;;;1.10
79228;BMP280;75303;53.496;10.214;2024-02-26T04:37:56;99783.72;;;1.09
79228;BMP280;75303;53.496;10.214;2024-02-26T04:40:22;99782.16;;;1.08
79228;BMP280;75303;53.496;10.214;2024-02-26T04:42:47;99780.84;;;1.11
79228;BMP280;75303;53.496;10.214;2024-02-26T04:45:13;99787.13;;;1.15
79228;BMP280;75303;53.496;10.214;2024-02-26T04:47:38;99794.94;;;1.20
79228;BMP280;75303;53.496;10.214;2024-02-26T04:50:04;99795.41;;;1.17
79228;BMP280;75303;53.496;10.214;2024-02-26T04:52:30;99793.34;;;1.14
79228;BMP280;75303;53.496;10.214;2024-02-26T04:54:55;99790.22;;;1.07
79228;BMP280;75303;53.496;10.214;2024-02-26T04:57:21;99792.53;;;1.08
79228;BMP280;75303;53.496;10.214;2024-02-26T04:59:46;99800.06;;;1.10
79228;BMP280;75303;53.496;10.214;2024-02-26T05:02:12;99804.72;;;1.03
79228;BMP280;75303;53.496;10.214;2024-02-26T05:04:38;99797.97;;;1.02
79228;BMP280;75303;53.496;10.214;2024-02-26T05:07:03;99801.09;;;1.04
79228;BMP280;75303;53.496;10.214;2024-02-26T05:09:29;99797.97;;;1.02
79228;BMP280;75303;53.496;10.214;2024-02-26T05:11:54;99794.84;;;1.00
79228;BMP280;75303;53.496;10.214;2024-02-26T05:14:20;99798.22;;;1.00
79228;BMP280;75303;53.496;10.214;2024-02-26T05:16:46;99799.00;;;1.01
79228;BMP280;75303;53.496;10.214;2024-02-26T05:19:12;99797.97;;;1.02
79228;BMP280;75303;53.496;10.214;2024-02-26T05:21:37;99800.81;;;1.00
79228;BMP280;75303;53.496;10.214;2024-02-26T05:24:03;99802.63;;;1.00
79228;BMP280;75303;53.496;10.214;2024-02-26T05:26:28;99797.41;;;0.95
79228;BMP280;75303;53.496;10.214;2024-02-26T05:28:53;99801.63;;;1.01
79228;BMP280;75303;53.496;10.214;2024-02-26T05:31:24;99814.81;;;0.99
79228;BMP280;75303;53.496;10.214;2024-02-26T05:33:49;99809.13;;;1.02
79228;BMP280;75303;53.496;10.214;2024-02-26T05:36:21;99808.88;;;1.04
79228;BMP280;75303;53.496;10.214;2024-02-26T05:38:48;99818.72;;;1.02
79228;BMP280;75303;53.496;10.214;2024-02-26T05:41:16;99810.44;;;1.05
79228;BMP280;75303;53.496;10.214;2024-02-26T05:43:48;99811.47;;;1.04
79228;BMP280;75303;53.496;10.214;2024-02-26T05:46:16;99815.63;;;1.00
79228;BMP280;75303;53.496;10.214;2024-02-26T05:48:41;99824.72;;;1.02
79228;BMP280;75303;53.496;10.214;2024-02-26T05:51:07;99822.94;;;1.08
79228;BMP280;75303;53.496;10.214;2024-02-26T05:53:32;99823.97;;;1.12
79228;BMP280;75303;53.496;10.214;2024-02-26T05:55:57;99831.22;;;1.10
79228;BMP280;75303;53.496;10.214;2024-02-26T05:58:23;99834.38;;;1.12
79228;BMP280;75303;53.496;10.214;2024-02-26T06:00:48;99830.47;;;1.09
79228;BMP280;75303;53.496;10.214;2024-02-26T06:03:14;99838.53;;;1.08
79228;BMP280;75303;53.496;10.214;2024-02-26T06:05:39;99837.22;;;1.10
79228;BMP280;75303;53.496;10.214;2024-02-26T06:08:05;99838.25;;;1.09
79228;BMP280;75303;53.496;10.214;2024-02-26T06:10:32;99841.34;;;1.06
79228;BMP280;75303;53.496;10.214;2024-02-26T06:12:58;99850.97;;;1.06
79228;BMP280;75303;53.496;10.214;2024-02-26T06:15:23;99847.06;;;1.08
79228;BMP280;75303;53.496;10.214;2024-02-26T06:17:49;99852.81;;;1.10
79228;BMP280;75303;53.496;10.214;2024-02-26T06:20:14;99852.53;;;1.07
79228;BMP280;75303;53.496;10.214;2024-02-26T06:22:40;99845.03;;;1.10
79228;BMP280;75303;53.496;10.214;2024-02-26T06:25:07;99858.56;;;1.17
79228;BMP280;75303;53.496;10.214;2024-02-26T06:27:33;99852.06;;;1.20
79228;BMP280;75303;53.496;10.214;2024-02-26T06:29:58;99856.78;;;1.23
79228;BMP280;75303;53.496;10.214;2024-02-26T06:32:24;99856.78;;;1.23
79228;BMP280;75303;53.496;10.214;2024-02-26T06:34:49;99857.00;;;1.21
79228;BMP280;75303;53.496;10.214;2024-02-26T06:37:15;99855.22;;;1.22
79228;BMP280;75303;53.496;10.214;2024-02-26T06:39:41;99857.81;;;1.22
79228;BMP280;75303;53.496;10.214;2024-02-26T06:42:07;99846.09;;;1.19
79228;BMP280;75303;53.496;10.214;2024-02-26T06:44:33;99855.97;;;1.22
79228;BMP280;75303;53.496;10.214;2024-02-26T06:46:59;99857.53;;;1.23
79228;BMP280;75303;53.496;10.214;2024-02-26T06:49:25;99877.84;;;1.26
79228;BMP280;75303;53.496;10.214;2024-02-26T06:51:50;99873.97;;;1.34
79228;BMP280;75303;53.496;10.214;2024-02-26T06:54:16;99866.16;;;1.39
79228;BMP280;75303;53.496;10.214;2024-02-26T06:56:41;99872.44;;;1.43
79228;BMP280;75303;53.496;10.214;2024-02-26T06:59:07;99874.03;;;1.49
79228;BMP280;75303;53.496;10.214;2024-02-26T07:01:33;99881.31;;;1.52
79228;BMP280;75303;53.496;10.214;2024-02-26T07:03:58;99881.81;;;1.53
79228;BMP280;75303;53.496;10.214;2024-02-26T07:06:24;99882.38;;;1.55
79228;BMP280;75303;53.496;10.214;2024-02-26T07:08:49;99884.97;;;1.55
79228;BMP280;75303;53.496;10.214;2024-02-26T07:11:15;99889.94;;;1.57
79228;BMP280;75303;53.496;10.214;2024-02-26T07:13:40;99893.81;;;1.59
79228;BMP280;75303;53.496;10.214;2024-02-26T07:16:09;99891.72;;;1.61
79228;BMP280;75303;53.496;10.214;2024-02-26T07:18:36;99899.31;;;1.63
79228;BMP280;75303;53.496;10.214;2024-02-26T07:21:02;99896.72;;;1.68
79228;BMP280;75303;53.496;10.214;2024-02-26T07:23:29;99901.16;;;1.72
79228;BMP280;75303;53.496;10.214;2024-02-26T07:25:55;99904.56;;;1.78
79228;BMP280;75303;53.496;10.214;2024-02-26T07:28:20;99900.38;;;1.77
79228;BMP280;75303;53.496;10.214;2024-02-26T07:30:46;99910.53;;;1.83
79228;BMP280;75303;53.496;10.214;2024-02-26T07:33:12;99910.56;;;1.88
79228;BMP280;75303;53.496;10.214;2024-02-26T07:35:37;99914.19;;;1.92
79228;BMP280;75303;53.496;10.214;2024-02-26T07:38:07;99922.53;;;1.99
79228;BMP280;75303;53.496;10.214;2024-02-26T07:40:32;99918.69;;;2.02
79228;BMP280;75303;53.496;10.214;2024-02-26T07:42:58;99921.00;;;2.03
79228;BMP280;75303;53.496;10.214;2024-02-26T07:45:23;99931.16;;;2.10
79228;BMP280;75303;53.496;10.214;2024-02-26T07:47:49;99937.16;;;2.15
79228;BMP280;75303;53.496;10.214;2024-02-26T07:50:16;99935.63;;;2.19
79228;BMP280;75303;53.496;10.214;2024-02-26T07:52:41;99937.44;;;2.19
79228;BMP280;75303;53.496;10.214;2024-02-26T07:55:07;99944.19;;;2.25
79228;BMP280;75303;53.496;10.214;2024-02-26T07:57:33;99946.56;;;2.26
79228;BMP280;75303;53.496;10.214;2024-02-26T07:59:59;99949.44;;;2.34
79228;BMP280;75303;53.496;10.214;2024-02-26T08:02:24;99953.38;;;2.42
79228;BMP280;75303;53.496;10.214;2024-02-26T08:04:50;99951.78;;;2.46
79228;BMP280;75303;53.496;10.214;2024-02-26T08:07:16;99952.84;;;2.50
79228;BMP280;75303;53.496;10.214;2024-02-26T08:09:41;99959.09;;;2.54
79228;BMP280;75303;53.496;10.214;2024-02-26T08:12:07;99960.16;;;2.58
79228;BMP280;75303;53.496;10.214;2024-02-26T08:14:33;99953.38;;;2.67
79228;BMP280;75303;53.496;10.214;2024-02-26T08:16:58;99959.91;;;2.74
79228;BMP280;75303;53.496;10.214;2024-02-26T08:19:24;99961.47;;;2.80
79228;BMP280;75303;53.496;10.214;2024-02-26T08:21:50;99959.66;;;2.86
79228;BMP280;75303;53.496;10.214;2024-02-26T08:24:15;99961.19;;;2.92
79228;BMP280;75303;53.496;10.214;2024-02-26T08:26:41;99963.78;;;2.97
79228;BMP280;75303;53.496;10.214;2024-02-26T08:29:06;99966.91;;;3.03
79228;BMP280;75303;53.496;10.214;2024-02-26T08:31:31;99972.91;;;3.09
79228;BMP280;75303;53.496;10.214;2024-02-26T08:33:57;99966.38;;;3.11
79228;BMP280;75303;53.496;10.214;2024-02-26T08:36:24;99968.47;;;3.19
79228;BMP280;75303;53.496;10.214;2024-02-26T08:38:49;99972.13;;;3.28
79228;BMP280;75303;53.496;10.214;2024-02-26T08:41:15;99982.00;;;3.36
79228;BMP280;75303;53.496;10.214;2024-02-26T08:43:40;99978.09;;;3.44
79228;BMP280;75303;53.496;10.214;2024-02-26T08:46:08;99981.47;;;3.54
79228;BMP280;75303;53.496;10.214;2024-02-26T08:48:34;99984.81;;;3.60
79228;BMP280;75303;53.496;10.214;2024-02-26T08:50:59;99987.16;;;3.66
79228;BMP280;75303;53.496;10.214;2024-02-26T08:53:25;99989.75;;;3.76
79228;BMP280;75303;53.496;10.214;2024-02-26T08:55:52;99991.81;;;3.84
79228;BMP280;75303;53.496;10.214;2024-02-26T08:58:17;99995.97;;;3.90
79228;BMP280;75303;53.496;10.214;2024-02-26T09:00:42;99996.44;;;3.97
79228;BMP280;75303;53.496;10.214;2024-02-26T09:03:08;100002.69;;;4.01
79228;BMP280;75303;53.496;10.214;2024-02-26T09:05:33;100001.88;;;4.10
79228;BMP280;75303;53.496;10.214;2024-02-26T09:07:58;99996.34;;;4.17
79228;BMP280;75303;53.496;10.214;2024-02-26T09:10:24;100005.72;;;4.23
79228;BMP280;75303;53.496;10.214;2024-02-26T09:12:49;100005.69;;;4.33
79228;BMP280;75303;53.496;10.214;2024-02-26T09:15:15;99994.69;;;4.41
79228;BMP280;75303;53.496;10.214;2024-02-26T09:17:40;100004.03;;;4.52
79228;BMP280;75303;53.496;10.214;2024-02-26T09:20:06;100012.09;;;4.55
79228;BMP280;75303;53.496;10.214;2024-02-26T09:22:34;100006.84;;;4.60
79228;BMP280;75303;53.496;10.214;2024-02-26T09:25:00;100007.84;;;4.64
79228;BMP280;75303;53.496;10.214;2024-02-26T09:27:25;100016.44;;;4.69
79228;BMP280;75303;53.496;10.214;2024-02-26T09:29:51;100010.97;;;4.71
79228;BMP280;75303;53.496;10.214;2024-02-26T09:32:17;100016.16;;;4.76
79228;BMP280;75303;53.496;10.214;2024-02-26T09:34:43;100014.28;;;4.81
79228;BMP280;75303;53.496;10.214;2024-02-26T09:37:08;100014.78;;;4.83
79228;BMP280;75303;53.496;10.214;2024-02-26T09:39:34;100016.63;;;4.83
79228;BMP280;75303;53.496;10.214;2024-02-26T09:42:04;100007.19;;;4.87
79228;BMP280;75303;53.496;10.214;2024-02-26T09:44:30;100017.34;;;4.93
79228;BMP280;75303;53.496;10.214;2024-02-26T09:46:56;100020.47;;;4.95
79228;BMP280;75303;53.496;10.214;2024-02-26T09:49:23;100022.25;;;5.00
79228;BMP280;75303;53.496;10.214;2024-02-26T09:51:49;100020.94;;;5.02
79228;BMP280;75303;53.496;10.214;2024-02-26T09:54:16;100018.84;;;5.04
79228;BMP280;75303;53.496;10.214;2024-02-26T09:56:43;100028.19;;;5.10
79228;BMP280;75303;53.496;10.214;2024-02-26T09:59:15;100021.63;;;5.13
79228;BMP280;75303;53.496;10.214;2024-02-26T10:01:42;100021.03;;;5.21
79228;BMP280;75303;53.496;10.214;2024-02-26T10:04:10;100031.28;;;5.17
79228;BMP280;75303;53.496;10.214;2024-02-26T10:06:36;100036.19;;;5.24
79228;BMP280;75303;53.496;10.214;2024-02-26T10:09:02;100032.47;;;5.30
79228;BMP280;75303;53.496;10.214;2024-02-26T10:11:31;100035.28;;;5.38
79228;BMP280;75303;53.496;10.214;2024-02-26T10:13:57;100037.34;;;5.41
79228;BMP280;75303;53.496;10.214;2024-02-26T10:16:22;100038.63;;;5.43
79228;BMP280;75303;53.496;10.214;2024-02-26T10:18:48;100033.41;;;5.43
79228;BMP280;75303;53.496;10.214;2024-02-26T10:21:16;100036.41;;;5.55
79228;BMP280;75303;53.496;10.214;2024-02-26T10:23:43;100035.81;;;5.63
79228;BMP280;75303;53.496;10.214;2024-02-26T10:26:10;100047.78;;;5.69
79228;BMP280;75303;53.496;10.214;2024-02-26T10:28:37;100039.91;;;5.74
79228;BMP280;75303;53.496;10.214;2024-02-26T10:31:03;100042.50;;;5.79
79228;BMP280;75303;53.496;10.214;2024-02-26T10:33:29;100051.09;;;5.85
79228;BMP280;75303;53.496;10.214;2024-02-26T10:35:54;100047.41;;;5.86
79228;BMP280;75303;53.496;10.214;2024-02-26T10:38:20;100052.06;;;5.89
79228;BMP280;75303;53.496;10.214;2024-02-26T10:40:48;100061.22;;;5.91
79228;BMP280;75303;53.496;10.214;2024-02-26T10:43:14;100056.47;;;5.93
79228;BMP280;75303;53.496;10.214;2024-02-26T10:45:43;100061.94;;;5.97
79228;BMP280;75303;53.496;10.214;2024-02-26T10:48:13;100061.69;;;5.98
79228;BMP280;75303;53.496;10.214;2024-02-26T10:50:40;100066.34;;;6.01
79228;BMP280;75303;53.496;10.214;2024-02-26T10:53:28;100070.25;;;6.04
79228;BMP280;75303;53.496;10.214;2024-02-26T10:55:57;100081.16;;;6.11
79228;BMP280;75303;53.496;10.214;2024-02-26T10:58:23;100070.38;;;6.17
79228;BMP280;75303;53.496;10.214;2024-02-26T11:00:53;100062.66;;;6.25
79228;BMP280;75303;53.496;10.214;2024-02-26T11:03:22;100077.28;;;6.31
79228;BMP280;75303;53.496;10.214;2024-02-26T11:05:48;100069.13;;;6.33
79228;BMP280;75303;53.496;10.214;2024-02-26T11:08:16;100070.09;;;6.42
79228;BMP280;75303;53.496;10.214;2024-02-26T11:10:42;100074.69;;;6.50
79228;BMP280;75303;53.496;10.214;2024-02-26T11:13:09;100068.75;;;6.63
79228;BMP280;75303;53.496;10.214;2024-02-26T11:15:36;100070.53;;;6.67
79228;BMP280;75303;53.496;10.214;2024-02-26T11:18:01;100071.53;;;6.71
79228;BMP280;75303;53.496;10.214;2024-02-26T11:20:32;100065.72;;;6.74
79228;BMP280;75303;53.496;10.214;2024-02-26T11:22:57;100074.31;;;6.80
79228;BMP280;75303;53.496;10.214;2024-02-26T11:25:22;100068.44;;;6.88
79228;BMP280;75303;53.496;10.214;2024-02-26T11:27:57;100079.97;;;6.87
79228;BMP280;75303;53.496;10.214;2024-02-26T11:30:25;100069.72;;;6.90
79228;BMP280;75303;53.496;10.214;2024-02-26T11:32:52;100069.63;;;6.95
79228;BMP280;75303;53.496;10.214;2024-02-26T11:35:18;100068.47;;;7.01
79228;BMP280;75303;53.496;10.214;2024-02-26T11:37:56;100074.09;;;7.13
79228;BMP280;75303;53.496;10.214;2024-02-26T11:40:24;100071.47;;;7.13
79228;BMP280;75303;53.496;10.214;2024-02-26T11:42:51;100072.88;;;7.24
79228;BMP280;75303;53.496;10.214;2024-02-26T11:48:17;100082.22;;;7.62
79228;BMP280;75303;53.496;10.214;2024-02-26T11:50:49;100086.16;;;7.77
79228;BMP280;75303;53.496;10.214;2024-02-26T11:53:31;100088.28;;;7.75
79228;BMP280;75303;53.496;10.214;2024-02-26T12:01:46;100094.56;;;8.06
79228;BMP280;75303;53.496;10.214;2024-02-26T12:04:16;100094.22;;;8.40
79228;BMP280;75303;53.496;10.214;2024-02-26T12:06:53;100090.53;;;8.54
79228;BMP280;75303;53.496;10.214;2024-02-26T12:09:36;100103.84;;;8.57
79228;BMP280;75303;53.496;10.214;2024-02-26T12:12:04;100103.47;;;8.64
79228;BMP280;75303;53.496;10.214;2024-02-26T12:14:29;100103.47;;;8.64
79228;BMP280;75303;53.496;10.214;2024-02-26T12:16:55;100113.88;;;8.55
79228;BMP280;75303;53.496;10.214;2024-02-26T12:19:21;100103.16;;;8.52
79228;BMP280;75303;53.496;10.214;2024-02-26T12:21:51;100111.66;;;8.49
79228;BMP280;75303;53.496;10.214;2024-02-26T12:24:17;100115.53;;;8.51
79228;BMP280;75303;53.496;10.214;2024-02-26T12:26:43;100107.63;;;8.65
79228;BMP280;75303;53.496;10.214;2024-02-26T12:29:09;100116.75;;;8.81
79228;BMP280;75303;53.496;10.214;2024-02-26T12:31:35;100120.84;;;8.87
79228;BMP280;75303;53.496;10.214;2024-02-26T12:34:03;100129.59;;;8.96
79228;BMP280;75303;53.496;10.214;2024-02-26T12:36:28;100134.28;;;8.99
79228;BMP280;75303;53.496;10.214;2024-02-26T12:38:54;100131.69;;;9.21
79228;BMP280;75303;53.496;10.214;2024-02-26T12:41:20;100132.38;;;9.26
79228;BMP280;75303;53.496;10.214;2024-02-26T12:43:46;100139.38;;;9.30
79228;BMP280;75303;53.496;10.214;2024-02-26T12:46:11;100136.03;;;9.03
79228;BMP280;75303;53.496;10.214;2024-02-26T12:48:38;100137.78;;;8.81
79228;BMP280;75303;53.496;10.214;2024-02-26T12:51:04;100141.34;;;8.63
79228;BMP280;75303;53.496;10.214;2024-02-26T13:29:34;100185.63;;;10.10
79228;BMP280;75303;53.496;10.214;2024-02-26T13:31:59;100188.94;;;9.94
79228;BMP280;75303;53.496;10.214;2024-02-26T13:34:28;100199.97;;;10.18
79228;BMP280;75303;53.496;10.214;2024-02-26T13:36:54;100200.66;;;10.32
79228;BMP280;75303;53.496;10.214;2024-02-26T13:39:24;100199.50;;;10.46
79228;BMP280;75303;53.496;10.214;2024-02-26T13:41:49;100208.06;;;10.30
79228;BMP280;75303;53.496;10.214;2024-02-26T13:44:15;100202.22;;;10.33
79228;BMP280;75303;53.496;10.214;2024-02-26T13:46:40;100195.97;;;10.29
79228;BMP280;75303;53.496;10.214;2024-02-26T13:49:08;100200.38;;;10.11
79228;BMP280;75303;53.496;10.214;2024-02-26T13:51:33;100206.78;;;9.97
79228;BMP280;75303;53.496;10.214;2024-02-26T13:54:00;100203.81;;;10.12
79228;BMP280;75303;53.496;10.214;2024-02-26T13:56:27;100194.13;;;9.64
79228;BMP280;75303;53.496;10.214;2024-02-26T13:58:52;100198.56;;;9.77
79228;BMP280;75303;53.496;10.214;2024-02-26T14:01:17;100198.28;;;10.00
79228;BMP280;75303;53.496;10.214;2024-02-26T14:03:42;100203.91;;;10.07
79228;BMP280;75303;53.496;10.214;2024-02-26T14:06:08;100204.03;;;10.24
79228;BMP280;75303;53.496;10.214;2024-02-26T14:08:33;100203.81;;;10.12
79228;BMP280;75303;53.496;10.214;2024-02-26T14:10:58;100209.38;;;9.53
79228;BMP280;75303;53.496;10.214;2024-02-26T14:16:00;100207.53;;;9.05
79228;BMP280;75303;53.496;10.214;2024-02-26T14:18:25;100210.84;;;8.84
79228;BMP280;75303;53.496;10.214;2024-02-26T14:20:52;100214.72;;;8.86
79228;BMP280;75303;53.496;10.214;2024-02-26T14:23:17;100221.13;;;9.07
79228;BMP280;75303;53.496;10.214;2024-02-26T14:25:42;100219.00;;;9.09
79228;BMP280;75303;53.496;10.214;2024-02-26T14:28:08;100220.31;;;9.47
79228;BMP280;75303;53.496;10.214;2024-02-26T14:30:34;100216.59;;;9.48
79228;BMP280;75303;53.496;10.214;2024-02-26T14:32:59;100222.72;;;9.57
79228;BMP280;75303;53.496;10.214;2024-02-26T14:35:24;100220.13;;;9.43
79228;BMP280;75303;53.496;10.214;2024-02-26T14:37:51;100226.41;;;9.21
79228;BMP280;75303;53.496;10.214;2024-02-26T14:40:17;100220.00;;;9.00
79228;BMP280;75303;53.496;10.214;2024-02-26T14:42:42;100225.63;;;8.66
79228;BMP280;75303;53.496;10.214;2024-02-26T14:45:08;100231.03;;;8.43
79228;BMP280;75303;53.496;10.214;2024-02-26T14:47:35;100231.97;;;8.20
79228;BMP280;75303;53.496;10.214;2024-02-26T14:50:00;100233.41;;;7.94